Portada
METAR-TAF:

METAR-TAF

Aeroports :

Aeroport Internacional de Cam Ranh

Cam Ranh, Vietnam

latitud: 11-59-53N, longitud: 109-13-10E, altitud: 12 m

Observació

L'informe es va fer fa 38 minuts, a les 21:30 UTC
Vent 1 kt del Nord/Nord-Oest
Temperatura 28°C
Humitat 79%
Pressió 1011 hPa
Visibilitat 10 km o més
Escasses núvols a una alçada de 1500 ft

METAR: VVCR 252130Z 33001KT 9999 FEW015 28/24 Q1011 NOSIG

Hora: 05:08 (22:08 UTC)

Pronòstic

L'informe es va fer fa 5 hores i 8 minuts, a les 17:00 UTC
Pronòstic vàlid del 25 a les 18 UTC al 26 a les 18 UTC
Vent 8 kt del Sud-Oest
Visibilitat 10 km o més
Escasses núvols a una alçada de 1500 ft
Núvols disperses a una alçada de 5000 ft
Temporalment
l' 26 a les 08 UTC al 26 a les 12 UTC
Núvols disperses a una alçada de 1300 ft
Escasses núvols a una alçada de 1500 ft, Cumulonimbus.
Núvols disperses a una alçada de 5000 ft
tempesta

TAF: VVCR 251700Z 2518/2618 22008KT 9999 FEW015 SCT050 TEMPO 2608/2612 TS SCT013 FEW015CB SCT050

Observacions i pronòstics meteorològics de més de 4000 aeroports (METAR i TAF).

Les estacions disponibles són els punts grocs i vermells al mapa.

Posi el ratolí al punt desitjat per veure el nom de l'estació.

Feu clic per veure les observacions i els pronòstics meteorològics.

Per canviar el mapa: feu clic els botons verds amb una creu de color negre per apropar; al botó verd amb un guió per allunyar la imatge; o en les fletxes verdes per a mapes adjacents.


METAR-TAF: